logo
Rechercher aéroport 
image banner adimage banner adimage banner ad
image banner ad

KMHR - Sacramento Mather

Situé à Sacramento, United States

ICAO - MHR, IATA - MHR

Données fournies par Airmate  

Information générale

Coordonnées: N38°33'19" W121°17'50"
Élévation : 98 feet MSL.
Variation magnétique : 13° East
Voir autres Aéroports à California

Données opérationnelles

Special qualification required
Heure actuelle UTC:
Heure actuelle locale:
Météo
METAR: KMHR 011835Z AUTO 00000KT 10SM CLR 25/10 A2979 RMK A01
TAF: KMHR 011721Z 0118/0218 VRB05KT P6SM SKC FM020000 23008KT P6SM SKC FM020700 16007KT P6SM SKC
Voir NOTAMs / SUP AIP / TFR affectant cet aéroport [VIEW]
Fréquences de communication: [VIEW]

Pistes:

Identifiant RWYQFULongueur (ft)Largeur (ft)SurfaceLDA (ft)
04R54°11301150OTHER
22L234°11301150OTHER
04L54°6081150ASPH
22R234°6081150ASPH

Coordonnées de l'aéroport

Adresse: Sacramento United States

Vue satellite de KMHR